createdAt,value
2023-02-09T00:01:33.784Z,42.08
2023-02-09T00:04:04.031Z,46.83
2023-02-09T00:06:33.629Z,49.85
2023-02-09T00:09:03.818Z,53.80
2023-02-09T00:11:51.174Z,47.50
2023-02-09T00:14:22.324Z,51.40
2023-02-09T00:16:54.512Z,45.40
2023-02-09T00:19:24.390Z,39.75
2023-02-09T00:21:53.703Z,43.17
2023-02-09T00:24:23.938Z,48.22
2023-02-09T00:26:53.823Z,44.35
2023-02-09T00:29:24.324Z,51.78
2023-02-09T00:31:55.444Z,41.17
2023-02-09T00:34:25.178Z,45.17
2023-02-09T00:36:54.644Z,46.10
2023-02-09T00:39:24.308Z,42.35
2023-02-09T00:42:08.754Z,45.25
2023-02-09T00:44:40.914Z,45.67
2023-02-09T00:47:11.940Z,37.20
2023-02-09T00:49:41.640Z,41.78
2023-02-09T00:52:10.907Z,45.67
2023-02-09T00:54:40.829Z,44.83
2023-02-09T00:57:10.196Z,40.08
2023-02-09T00:59:41.044Z,38.33
2023-02-09T01:02:11.810Z,36.53
2023-02-09T01:04:41.544Z,36.65
2023-02-09T01:07:11.048Z,37.08
2023-02-09T01:09:40.782Z,30.67
2023-02-09T01:12:10.395Z,34.15
2023-02-09T01:14:40.787Z,33.92
2023-02-09T01:17:12.467Z,36.67
2023-02-09T01:19:42.304Z,36.72
2023-02-09T01:22:12.636Z,46.65
2023-02-09T01:24:42.360Z,35.25
2023-02-09T01:27:11.752Z,37.13
2023-02-09T01:29:41.363Z,38.03
2023-02-09T01:32:12.579Z,40.22
2023-02-09T01:34:42.814Z,43.30
2023-02-09T01:37:12.299Z,44.95
2023-02-09T01:39:42.508Z,42.70
2023-02-09T01:42:16.696Z,45.58
2023-02-09T01:45:16.559Z,44.95
2023-02-09T01:47:51.091Z,40.22
2023-02-09T01:50:21.590Z,40.90
2023-02-09T01:52:51.896Z,41.00
2023-02-09T01:55:25.777Z,43.63
2023-02-09T01:58:01.205Z,45.90
2023-02-09T02:00:31.391Z,47.08
2023-02-09T02:03:05.765Z,52.25
2023-02-09T02:05:38.896Z,51.45
2023-02-09T02:08:13.603Z,53.20
2023-02-09T02:10:43.370Z,51.30
2023-02-09T02:13:12.876Z,52.53
2023-02-09T02:15:50.763Z,55.65
2023-02-09T02:18:32.362Z,53.95
2023-02-09T02:21:40.479Z,54.80
2023-02-09T02:24:31.756Z,63.30
2023-02-09T02:27:04.259Z,49.03
2023-02-09T02:30:04.492Z,51.38
2023-02-09T02:32:50.009Z,57.50
2023-02-09T02:35:24.915Z,57.25
2023-02-09T02:38:01.937Z,61.22
2023-02-09T02:40:43.151Z,58.35
2023-02-09T02:43:23.772Z,55.30
2023-02-09T02:45:58.052Z,54.05
2023-02-09T02:48:37.947Z,64.07
2023-02-09T02:51:10.768Z,53.92
2023-02-09T02:53:44.567Z,66.05
2023-02-09T02:56:17.096Z,52.05
2023-02-09T02:58:49.856Z,58.15
2023-02-09T03:01:24.150Z,56.88
2023-02-09T03:03:56.967Z,60.38
2023-02-09T03:06:26.223Z,55.55
2023-02-09T03:08:57.886Z,55.95
2023-02-09T03:11:32.259Z,59.10
2023-02-09T03:14:13.395Z,57.45
2023-02-09T03:16:47.782Z,56.03
2023-02-09T03:19:37.235Z,59.97
2023-02-09T03:22:15.180Z,59.25
2023-02-09T03:24:50.487Z,60.30
2023-02-09T03:27:24.322Z,68.28
2023-02-09T03:29:57.683Z,62.40
2023-02-09T03:32:27.848Z,68.05
2023-02-09T03:34:59.573Z,55.42
2023-02-09T03:37:29.139Z,58.67
2023-02-09T03:39:58.974Z,64.72
2023-02-09T03:42:28.367Z,59.60
2023-02-09T03:44:58.126Z,56.38
2023-02-09T03:47:27.717Z,61.75
2023-02-09T03:49:59.599Z,68.80
2023-02-09T03:52:31.239Z,61.92
2023-02-09T03:55:01.142Z,66.65
2023-02-09T03:57:30.710Z,68.43
2023-02-09T04:00:01.641Z,67.75
2023-02-09T04:02:31.530Z,62.70
2023-02-09T04:05:05.421Z,63.83
2023-02-09T04:07:35.214Z,63.38
2023-02-09T04:10:05.497Z,75.85
2023-02-09T04:12:34.863Z,75.35
2023-02-09T04:15:04.788Z,61.70
2023-02-09T04:17:34.129Z,65.38
2023-02-09T04:20:05.797Z,71.95
2023-02-09T04:22:35.344Z,63.38
2023-02-09T04:25:05.383Z,74.43
2023-02-09T04:27:34.732Z,71.13
2023-02-09T04:30:04.530Z,70.78
2023-02-09T04:32:34.013Z,72.03
2023-02-09T04:35:05.176Z,73.72
2023-02-09T04:37:34.467Z,69.03
2023-02-09T04:40:06.220Z,66.35
2023-02-09T04:42:36.699Z,63.95
2023-02-09T04:45:07.629Z,55.85
2023-02-09T04:47:36.902Z,59.38
2023-02-09T04:50:08.494Z,60.97
2023-02-09T04:52:37.852Z,41.10
2023-02-09T04:55:08.351Z,55.70
2023-02-09T04:57:55.285Z,46.05
2023-02-09T05:00:25.049Z,46.92
2023-02-09T05:02:55.748Z,47.80
2023-02-09T05:05:26.918Z,50.38
2023-02-09T05:07:56.350Z,47.72
2023-02-09T05:10:26.012Z,57.55
2023-02-09T05:12:55.410Z,51.15
2023-02-09T05:15:25.103Z,41.00
2023-02-09T05:17:54.388Z,50.80
2023-02-09T05:20:24.034Z,41.08
2023-02-09T05:22:54.778Z,47.42
2023-02-09T05:27:53.455Z,52.28
2023-02-09T05:30:23.727Z,48.30
2023-02-09T05:32:53.250Z,45.13
2023-02-09T05:35:23.434Z,47.65
2023-02-09T05:37:54.288Z,49.15
2023-02-09T05:40:24.003Z,50.92
2023-02-09T05:42:53.583Z,49.45
2023-02-09T05:45:23.618Z,52.70
2023-02-09T05:47:52.860Z,54.13
2023-02-09T05:50:22.628Z,51.33
2023-02-09T05:52:52.197Z,54.88
2023-02-09T05:55:23.264Z,55.45
2023-02-09T05:57:52.786Z,57.10
2023-02-09T06:00:25.312Z,53.97
2023-02-09T06:02:54.894Z,63.20
2023-02-09T06:05:24.661Z,60.67
2023-02-09T06:07:53.947Z,50.38
2023-02-09T06:10:25.203Z,57.58
2023-02-09T06:12:54.492Z,58.60
2023-02-09T06:15:24.236Z,64.20
2023-02-09T06:17:53.530Z,62.40
2023-02-09T06:20:24.448Z,61.45
2023-02-09T06:22:56.351Z,59.83
2023-02-09T06:25:27.854Z,64.43
2023-02-09T06:27:57.404Z,68.60
2023-02-09T06:30:27.141Z,69.63
2023-02-09T06:32:56.432Z,67.03
2023-02-09T06:35:26.083Z,66.60
2023-02-09T06:37:58.992Z,61.75
2023-02-09T06:40:31.408Z,59.35
2023-02-09T06:43:00.715Z,64.25
2023-02-09T06:45:30.601Z,60.55
2023-02-09T06:47:59.988Z,68.07
2023-02-09T06:50:29.755Z,73.53
2023-02-09T06:52:59.947Z,63.00
2023-02-09T06:55:31.346Z,56.95
2023-02-09T06:58:00.798Z,60.30
2023-02-09T07:00:31.883Z,56.83
2023-02-09T07:03:01.779Z,59.03
2023-02-09T07:05:32.368Z,64.55
2023-02-09T07:08:01.688Z,66.38
2023-02-09T07:10:33.052Z,56.83
2023-02-09T07:15:31.804Z,52.47
2023-02-09T07:18:01.080Z,61.55
2023-02-09T07:20:31.056Z,60.88
2023-02-09T07:23:02.664Z,66.05
2023-02-09T07:25:35.904Z,59.78
2023-02-09T07:28:05.485Z,67.35
2023-02-09T07:30:35.282Z,56.17
2023-02-09T07:33:04.677Z,59.58
2023-02-09T07:35:34.427Z,57.53
2023-02-09T07:38:03.831Z,61.65
2023-02-09T07:40:35.307Z,59.22
2023-02-09T07:43:04.929Z,66.43
2023-02-09T07:45:35.246Z,54.13
2023-02-09T07:48:04.779Z,53.65
2023-02-09T07:50:34.859Z,59.88
2023-02-09T07:53:04.100Z,59.75
2023-02-09T07:55:35.266Z,66.55
2023-02-09T07:58:04.651Z,64.93
2023-02-09T08:00:34.444Z,70.28
2023-02-09T08:03:05.335Z,67.70
2023-02-09T08:05:42.830Z,63.25
2023-02-09T08:08:12.263Z,67.47
2023-02-09T08:10:44.387Z,69.28
2023-02-09T08:13:15.577Z,62.53
2023-02-09T08:15:48.657Z,59.70
2023-02-09T08:18:21.612Z,61.38
2023-02-09T08:20:54.164Z,60.88
2023-02-09T08:23:26.768Z,63.75
2023-02-09T08:25:58.514Z,66.50
2023-02-09T08:28:42.862Z,58.00
2023-02-09T08:31:13.962Z,60.80
2023-02-09T08:33:44.914Z,63.70
2023-02-09T08:36:16.322Z,55.17
2023-02-09T08:41:18.993Z,56.50
2023-02-09T08:43:50.646Z,63.20
2023-02-09T08:46:20.835Z,63.20
2023-02-09T08:48:50.228Z,56.83
2023-02-09T08:51:20.296Z,64.00
2023-02-09T08:53:52.743Z,63.90
2023-02-09T08:56:24.996Z,60.60
2023-02-09T08:58:54.444Z,55.95
2023-02-09T09:01:24.269Z,61.35
2023-02-09T09:03:53.784Z,59.67
2023-02-09T09:06:24.072Z,58.75
2023-02-09T09:08:53.405Z,57.22
2023-02-09T09:11:24.633Z,57.92
2023-02-09T09:13:53.909Z,54.80
2023-02-09T09:16:24.656Z,53.42
2023-02-09T09:18:54.077Z,61.15
2023-02-09T09:21:23.797Z,50.58
2023-02-09T09:23:53.244Z,64.47
2023-02-09T09:26:24.401Z,60.67
2023-02-09T09:28:54.188Z,50.30
2023-02-09T09:31:23.988Z,49.50
2023-02-09T09:33:53.384Z,51.42
2023-02-09T09:36:23.151Z,56.55
2023-02-09T09:38:52.590Z,53.05
2023-02-09T09:41:30.202Z,58.20
2023-02-09T09:44:00.452Z,52.22
2023-02-09T09:46:37.203Z,45.80
2023-02-09T09:49:07.211Z,53.72
2023-02-09T09:51:41.099Z,52.88
2023-02-09T09:54:17.462Z,45.33
2023-02-09T09:56:48.888Z,50.10
2023-02-09T10:01:52.742Z,50.03
2023-02-09T10:04:22.467Z,46.20
2023-02-09T10:07:00.667Z,46.83
2023-02-09T10:09:40.546Z,50.67
2023-02-09T10:12:24.516Z,46.83
2023-02-09T10:14:53.834Z,45.38
2023-02-09T10:17:23.479Z,47.80
2023-02-09T10:20:03.865Z,43.35
2023-02-09T10:22:33.653Z,52.80
2023-02-09T10:25:03.915Z,40.10
2023-02-09T10:27:35.430Z,46.08
2023-02-09T10:30:20.103Z,47.58
2023-02-09T10:32:50.046Z,40.00
2023-02-09T10:35:30.787Z,44.05
2023-02-09T10:40:34.034Z,49.20
2023-02-09T10:43:08.708Z,52.72
2023-02-09T10:45:42.114Z,49.17
2023-02-09T10:48:20.566Z,48.03
2023-02-09T10:50:54.670Z,41.53
2023-02-09T10:53:28.357Z,43.65
2023-02-09T10:56:03.891Z,42.75
2023-02-09T10:58:36.777Z,49.42
2023-02-09T11:01:18.775Z,49.60
2023-02-09T11:04:04.449Z,47.17
2023-02-09T11:06:45.049Z,46.53
2023-02-09T11:09:17.984Z,43.60
2023-02-09T11:11:48.347Z,49.38
2023-02-09T11:14:21.128Z,46.00
2023-02-09T11:17:07.761Z,41.53
2023-02-09T11:20:01.106Z,52.10
2023-02-09T11:22:55.283Z,38.20
2023-02-09T11:25:29.303Z,45.10
2023-02-09T11:28:20.506Z,43.67
2023-02-09T11:31:04.956Z,44.47
2023-02-09T11:33:45.230Z,52.05
2023-02-09T11:36:30.288Z,46.55
2023-02-09T11:39:03.007Z,49.53
2023-02-09T11:41:56.432Z,41.75
2023-02-09T11:44:31.518Z,44.17
2023-02-09T11:47:06.844Z,42.50
2023-02-09T11:49:50.219Z,39.35
2023-02-09T11:52:26.425Z,38.90
2023-02-09T11:55:01.307Z,41.92
2023-02-09T11:57:37.948Z,40.75
2023-02-09T12:00:13.232Z,47.20
2023-02-09T12:02:54.010Z,40.67
2023-02-09T12:05:24.776Z,45.45
2023-02-09T12:10:41.737Z,48.97
2023-02-09T12:13:31.914Z,48.67
2023-02-09T12:16:03.995Z,44.90
2023-02-09T12:18:36.902Z,46.00
2023-02-09T12:21:07.852Z,39.20
2023-02-09T12:23:39.610Z,38.78
2023-02-09T12:29:03.940Z,42.80
2023-02-09T12:31:53.866Z,43.33
2023-02-09T12:34:30.957Z,43.90
2023-02-09T12:37:18.798Z,40.60
2023-02-09T12:40:30.785Z,46.88
2023-02-09T12:43:30.049Z,40.72
2023-02-09T12:46:24.422Z,42.00
2023-02-09T12:49:04.260Z,38.45
2023-02-09T12:51:47.828Z,42.80
2023-02-09T12:54:33.596Z,42.17
2023-02-09T12:57:36.207Z,38.13
2023-02-09T13:00:43.585Z,44.90
2023-02-09T13:03:20.673Z,41.45
2023-02-09T13:05:51.570Z,39.65
2023-02-09T13:08:47.704Z,44.58
2023-02-09T13:11:31.045Z,41.33
2023-02-09T13:14:04.383Z,40.78
2023-02-09T13:16:58.751Z,39.85
2023-02-09T13:19:52.924Z,36.40
2023-02-09T13:22:35.125Z,36.13
2023-02-09T13:25:18.201Z,36.15
2023-02-09T13:27:49.695Z,42.85
2023-02-09T13:30:28.348Z,37.33
2023-02-09T13:33:05.269Z,34.90
2023-02-09T13:35:39.051Z,37.42
2023-02-09T13:38:17.579Z,43.65
2023-02-09T13:40:50.484Z,40.10
2023-02-09T13:43:25.916Z,38.00
2023-02-09T13:45:57.061Z,43.90
2023-02-09T13:48:28.943Z,33.55
2023-02-09T13:51:00.573Z,44.50
2023-02-09T13:53:31.254Z,41.08
2023-02-09T13:58:35.502Z,43.15
2023-02-09T14:01:07.450Z,40.33
2023-02-09T14:03:56.650Z,45.35
2023-02-09T14:06:35.268Z,46.95
2023-02-09T14:09:07.188Z,47.83
2023-02-09T14:11:43.345Z,47.55
2023-02-09T14:14:17.527Z,41.47
2023-02-09T14:16:53.718Z,44.85
2023-02-09T14:19:28.784Z,39.42
2023-02-09T14:21:58.506Z,45.40
2023-02-09T14:24:29.430Z,45.28
2023-02-09T14:27:05.171Z,44.33
2023-02-09T14:29:37.124Z,47.20
2023-02-09T14:32:32.381Z,50.13
2023-02-09T14:35:18.067Z,45.10
2023-02-09T14:37:48.798Z,45.75
2023-02-09T14:40:30.161Z,45.03
2023-02-09T14:43:25.174Z,49.15
2023-02-09T14:46:01.471Z,46.17
2023-02-09T14:48:32.670Z,45.25
2023-02-09T14:51:04.261Z,47.90
2023-02-09T14:53:34.830Z,51.65
2023-02-09T14:56:04.132Z,44.30
2023-02-09T14:58:36.106Z,41.53
2023-02-09T15:01:05.699Z,47.03
2023-02-09T15:03:38.039Z,45.72
2023-02-09T15:06:07.911Z,47.15
2023-02-09T15:08:39.460Z,47.90
2023-02-09T15:11:25.990Z,47.13
2023-02-09T15:14:00.160Z,43.63
2023-02-09T15:16:29.468Z,48.35
2023-02-09T15:18:59.585Z,52.55
2023-02-09T15:21:29.025Z,42.80
2023-02-09T15:23:59.376Z,56.67
2023-02-09T15:26:29.076Z,48.38
2023-02-09T15:29:00.730Z,44.50
2023-02-09T15:31:30.556Z,50.47
2023-02-09T15:34:00.530Z,46.63
2023-02-09T15:36:30.142Z,53.55
2023-02-09T15:39:00.013Z,46.35
2023-02-09T15:41:46.349Z,47.65
2023-02-09T15:44:37.917Z,47.45
2023-02-09T15:49:54.139Z,49.72
2023-02-09T15:52:23.744Z,56.30
2023-02-09T15:54:54.924Z,51.97
2023-02-09T15:57:25.883Z,48.90
2023-02-09T15:59:57.156Z,54.78
2023-02-09T16:04:57.268Z,46.72
2023-02-09T16:07:27.798Z,54.05
2023-02-09T16:09:57.653Z,48.25
2023-02-09T16:12:27.613Z,43.28
2023-02-09T16:15:00.216Z,43.70
2023-02-09T16:17:29.747Z,48.67
2023-02-09T16:19:59.810Z,51.80
2023-02-09T16:22:29.382Z,51.97
2023-02-09T16:24:59.387Z,52.55
2023-02-09T16:27:30.061Z,46.13
2023-02-09T16:30:01.886Z,51.78
2023-02-09T16:32:32.417Z,51.38
2023-02-09T16:35:15.975Z,47.65
2023-02-09T16:37:48.077Z,48.15
2023-02-09T16:40:26.259Z,52.72
2023-02-09T16:42:55.896Z,50.03
2023-02-09T16:45:29.391Z,48.47
2023-02-09T16:48:00.197Z,48.03
2023-02-09T16:50:33.086Z,46.10
2023-02-09T16:53:05.253Z,50.65
2023-02-09T16:55:37.305Z,41.42
2023-02-09T16:58:07.098Z,39.63
2023-02-09T17:00:39.817Z,46.23
2023-02-09T17:03:15.329Z,49.42
2023-02-09T17:05:48.550Z,41.75
2023-02-09T17:08:21.150Z,39.33
2023-02-09T17:10:52.659Z,40.70
2023-02-09T17:13:22.519Z,36.38
2023-02-09T17:15:56.057Z,38.85
2023-02-09T17:18:30.608Z,40.85
2023-02-09T17:21:03.629Z,46.58
2023-02-09T17:23:33.331Z,40.28
2023-02-09T17:26:03.360Z,48.53
2023-02-09T17:28:33.362Z,39.95
2023-02-09T17:31:13.174Z,43.15
2023-02-09T17:33:42.518Z,43.92
2023-02-09T17:36:29.372Z,42.35
2023-02-09T17:39:00.620Z,41.65
2023-02-09T17:41:34.763Z,38.53
2023-02-09T17:44:24.078Z,46.70
2023-02-09T17:47:00.049Z,41.72
2023-02-09T17:49:32.450Z,43.13
2023-02-09T17:52:02.147Z,41.20
2023-02-09T17:54:33.051Z,37.33
2023-02-09T17:57:03.130Z,41.42
2023-02-09T17:59:32.877Z,40.88
2023-02-09T18:02:05.598Z,38.43
2023-02-09T18:04:37.669Z,36.20
2023-02-09T18:07:07.727Z,32.95
2023-02-09T18:09:37.038Z,35.35
2023-02-09T18:12:09.629Z,33.65
2023-02-09T18:14:40.824Z,34.45
2023-02-09T18:17:13.469Z,31.42
2023-02-09T18:19:44.012Z,30.42
2023-02-09T18:22:17.341Z,31.95
2023-02-09T18:24:47.772Z,31.83
2023-02-09T18:27:20.643Z,25.45
2023-02-09T18:29:50.112Z,32.28
2023-02-09T18:32:24.157Z,31.00
2023-02-09T18:34:53.444Z,39.10
2023-02-09T18:37:23.662Z,33.30
2023-02-09T18:39:53.430Z,31.90
2023-02-09T18:42:23.408Z,28.97
2023-02-09T18:44:53.291Z,28.65
2023-02-09T18:47:24.603Z,29.92
2023-02-09T18:49:54.124Z,27.42
2023-02-09T18:52:25.665Z,30.75
2023-02-09T18:54:55.442Z,28.35
2023-02-09T18:57:25.139Z,27.48
2023-02-09T18:59:56.641Z,30.02
2023-02-09T19:02:27.858Z,31.23
2023-02-09T19:04:58.119Z,29.58
2023-02-09T19:07:28.237Z,30.02
2023-02-09T19:09:57.578Z,27.25
2023-02-09T19:12:28.455Z,28.77
2023-02-09T19:14:57.995Z,26.60
2023-02-09T19:17:29.616Z,29.70
2023-02-09T19:22:28.886Z,24.55
2023-02-09T19:24:59.245Z,28.70
2023-02-09T19:30:00.367Z,24.30
2023-02-09T19:32:33.282Z,21.40
2023-02-09T19:35:05.089Z,25.67
2023-02-09T19:37:37.649Z,24.55
2023-02-09T19:40:17.820Z,25.60
2023-02-09T19:42:47.516Z,25.88
2023-02-09T19:45:17.473Z,23.25
2023-02-09T19:47:48.775Z,24.17
2023-02-09T19:50:18.772Z,26.98
2023-02-09T19:52:49.494Z,24.33
2023-02-09T19:55:18.859Z,25.92
2023-02-09T19:57:48.649Z,20.55
2023-02-09T20:00:19.836Z,20.98
2023-02-09T20:02:51.468Z,24.00
2023-02-09T20:07:52.819Z,25.60
2023-02-09T20:10:24.075Z,19.75
2023-02-09T20:12:53.785Z,22.08
2023-02-09T20:15:23.291Z,22.25
2023-02-09T20:17:54.827Z,22.73
2023-02-09T20:20:24.524Z,15.73
2023-02-09T20:22:54.483Z,20.13
2023-02-09T20:25:23.968Z,17.30
2023-02-09T20:27:53.789Z,21.83
2023-02-09T20:30:23.248Z,20.83
2023-02-09T20:32:54.912Z,18.00
2023-02-09T20:37:55.135Z,19.38
2023-02-09T20:40:24.686Z,21.45
2023-02-09T20:43:11.901Z,23.02
2023-02-09T20:45:59.525Z,21.33
2023-02-09T20:48:30.962Z,19.25
2023-02-09T20:51:00.649Z,18.23
2023-02-09T20:53:30.385Z,18.20
2023-02-09T20:56:00.008Z,19.55
2023-02-09T20:58:31.431Z,18.98
2023-02-09T21:01:02.607Z,17.05
2023-02-09T21:03:33.708Z,20.00
2023-02-09T21:08:33.520Z,12.90
2023-02-09T21:11:09.843Z,15.23
2023-02-09T21:13:41.348Z,23.50
2023-02-09T21:16:11.108Z,19.95
2023-02-09T21:18:43.032Z,19.70
2023-02-09T21:21:16.737Z,14.27
2023-02-09T21:23:48.153Z,15.27
2023-02-09T21:26:19.953Z,15.77
2023-02-09T21:28:52.216Z,17.10
2023-02-09T21:31:23.996Z,19.33
2023-02-09T21:33:55.364Z,20.80
2023-02-09T21:38:53.950Z,20.05
2023-02-09T21:41:42.677Z,18.02
2023-02-09T21:44:14.283Z,16.25
2023-02-09T21:46:43.956Z,18.38
2023-02-09T21:49:15.359Z,14.15
2023-02-09T21:54:15.643Z,14.52
2023-02-09T21:56:44.969Z,21.45
2023-02-09T21:59:14.732Z,15.32
2023-02-09T22:01:44.043Z,14.63
2023-02-09T22:04:15.677Z,12.98
2023-02-09T22:06:47.208Z,17.58
2023-02-09T22:09:17.046Z,18.48
2023-02-09T22:11:46.809Z,15.90
2023-02-09T22:14:16.882Z,18.38
2023-02-09T22:16:47.036Z,15.82
2023-02-09T22:19:18.326Z,14.52
2023-02-09T22:21:47.744Z,15.35
2023-02-09T22:24:17.984Z,18.48
2023-02-09T22:26:48.106Z,16.67
2023-02-09T22:29:18.609Z,14.35
2023-02-09T22:31:48.651Z,15.67
2023-02-09T22:34:19.807Z,18.00
2023-02-09T22:39:23.031Z,18.48
2023-02-09T22:41:52.321Z,16.13
2023-02-09T22:44:21.962Z,17.27
2023-02-09T22:46:51.281Z,19.40
2023-02-09T22:49:22.958Z,18.75
2023-02-09T22:51:53.041Z,13.57
2023-02-09T22:54:22.831Z,17.60
2023-02-09T22:56:53.045Z,15.73
2023-02-09T22:59:23.342Z,23.40
2023-02-09T23:01:52.676Z,21.30
2023-02-09T23:04:23.993Z,20.98
2023-02-09T23:06:53.433Z,15.55
2023-02-09T23:09:23.228Z,25.63
2023-02-09T23:11:53.108Z,18.73
2023-02-09T23:14:22.880Z,17.53
2023-02-09T23:16:52.260Z,21.10
2023-02-09T23:19:23.858Z,23.05
2023-02-09T23:21:54.616Z,15.25
2023-02-09T23:24:24.934Z,23.65
2023-02-09T23:26:54.507Z,22.08
2023-02-09T23:29:24.693Z,18.58
2023-02-09T23:31:53.983Z,15.02
2023-02-09T23:34:25.224Z,16.73
2023-02-09T23:36:54.815Z,24.95
2023-02-09T23:39:25.982Z,22.92
2023-02-09T23:41:55.836Z,16.42
2023-02-09T23:44:25.828Z,18.55
2023-02-09T23:46:55.227Z,23.63
2023-02-09T23:49:26.535Z,19.98
2023-02-09T23:51:55.821Z,20.42
2023-02-09T23:54:25.692Z,21.67
2023-02-09T23:56:55.611Z,22.27
2023-02-09T23:59:25.317Z,22.88
